sensor_id;sensor_type;location;lat;lon;timestamp;P1;durP1;ratioP1;P2;durP2;ratioP2
41661;SDS011;27351;45.992;12.666;2022-08-26T00:00:30;7.60;;;3.45;;
41661;SDS011;27351;45.992;12.666;2022-08-26T00:02:56;6.70;;;3.20;;
41661;SDS011;27351;45.992;12.666;2022-08-26T00:05:22;6.05;;;3.28;;
41661;SDS011;27351;45.992;12.666;2022-08-26T00:07:47;7.00;;;3.57;;
41661;SDS011;27351;45.992;12.666;2022-08-26T00:10:14;6.72;;;3.30;;
41661;SDS011;27351;45.992;12.666;2022-08-26T00:12:40;9.33;;;3.77;;
41661;SDS011;27351;45.992;12.666;2022-08-26T00:15:05;7.53;;;3.40;;
41661;SDS011;27351;45.992;12.666;2022-08-26T00:17:31;8.25;;;3.60;;
41661;SDS011;27351;45.992;12.666;2022-08-26T00:19:57;7.35;;;3.65;;
41661;SDS011;27351;45.992;12.666;2022-08-26T00:22:22;6.83;;;3.67;;
41661;SDS011;27351;45.992;12.666;2022-08-26T00:24:48;7.13;;;3.60;;
41661;SDS011;27351;45.992;12.666;2022-08-26T00:27:13;6.55;;;3.47;;
41661;SDS011;27351;45.992;12.666;2022-08-26T00:29:39;8.70;;;4.23;;
41661;SDS011;27351;45.992;12.666;2022-08-26T00:32:05;7.30;;;3.72;;
41661;SDS011;27351;45.992;12.666;2022-08-26T00:34:30;7.38;;;3.45;;
41661;SDS011;27351;45.992;12.666;2022-08-26T00:36:56;8.07;;;3.67;;
41661;SDS011;27351;45.992;12.666;2022-08-26T00:39:22;7.87;;;3.83;;
41661;SDS011;27351;45.992;12.666;2022-08-26T00:41:47;7.50;;;3.92;;
41661;SDS011;27351;45.992;12.666;2022-08-26T00:44:13;8.23;;;3.80;;
41661;SDS011;27351;45.992;12.666;2022-08-26T00:46:42;8.93;;;4.10;;
41661;SDS011;27351;45.992;12.666;2022-08-26T00:49:14;7.70;;;3.83;;
41661;SDS011;27351;45.992;12.666;2022-08-26T00:51:46;8.07;;;3.80;;
41661;SDS011;27351;45.992;12.666;2022-08-26T00:54:12;8.00;;;3.72;;
41661;SDS011;27351;45.992;12.666;2022-08-26T00:59:05;7.50;;;3.70;;
41661;SDS011;27351;45.992;12.666;2022-08-26T01:01:32;8.85;;;3.95;;
41661;SDS011;27351;45.992;12.666;2022-08-26T01:03:58;8.68;;;4.00;;
41661;SDS011;27351;45.992;12.666;2022-08-26T01:06:24;7.00;;;3.92;;
41661;SDS011;27351;45.992;12.666;2022-08-26T01:08:50;6.60;;;3.75;;
41661;SDS011;27351;45.992;12.666;2022-08-26T01:11:17;7.20;;;3.80;;
41661;SDS011;27351;45.992;12.666;2022-08-26T01:13:42;6.80;;;4.00;;
41661;SDS011;27351;45.992;12.666;2022-08-26T01:16:09;8.57;;;4.25;;
41661;SDS011;27351;45.992;12.666;2022-08-26T01:18:36;7.95;;;3.83;;
41661;SDS011;27351;45.992;12.666;2022-08-26T01:21:04;8.75;;;3.92;;
41661;SDS011;27351;45.992;12.666;2022-08-26T01:23:33;7.95;;;3.95;;
41661;SDS011;27351;45.992;12.666;2022-08-26T01:26:19;9.68;;;3.92;;
41661;SDS011;27351;45.992;12.666;2022-08-26T01:28:46;7.18;;;4.03;;
41661;SDS011;27351;45.992;12.666;2022-08-26T01:31:13;7.78;;;4.22;;
41661;SDS011;27351;45.992;12.666;2022-08-26T01:36:25;9.90;;;4.72;;
41661;SDS011;27351;45.992;12.666;2022-08-26T01:38:50;7.93;;;3.88;;
41661;SDS011;27351;45.992;12.666;2022-08-26T01:41:17;7.10;;;4.10;;
41661;SDS011;27351;45.992;12.666;2022-08-26T01:43:44;8.02;;;4.45;;
41661;SDS011;27351;45.992;12.666;2022-08-26T01:46:10;8.88;;;4.68;;
41661;SDS011;27351;45.992;12.666;2022-08-26T01:48:37;11.40;;;4.23;;
41661;SDS011;27351;45.992;12.666;2022-08-26T01:51:05;9.05;;;4.40;;
41661;SDS011;27351;45.992;12.666;2022-08-26T01:53:34;8.27;;;4.60;;
41661;SDS011;27351;45.992;12.666;2022-08-26T01:56:00;6.43;;;4.03;;
41661;SDS011;27351;45.992;12.666;2022-08-26T01:58:29;9.13;;;4.70;;
41661;SDS011;27351;45.992;12.666;2022-08-26T02:00:56;8.95;;;4.28;;
41661;SDS011;27351;45.992;12.666;2022-08-26T02:03:21;8.07;;;4.43;;
41661;SDS011;27351;45.992;12.666;2022-08-26T02:05:58;8.95;;;4.40;;
41661;SDS011;27351;45.992;12.666;2022-08-26T02:08:36;9.32;;;5.03;;
41661;SDS011;27351;45.992;12.666;2022-08-26T02:11:03;8.57;;;4.40;;
41661;SDS011;27351;45.992;12.666;2022-08-26T02:13:29;8.40;;;4.40;;
41661;SDS011;27351;45.992;12.666;2022-08-26T02:15:56;9.15;;;4.20;;
41661;SDS011;27351;45.992;12.666;2022-08-26T02:18:23;10.10;;;5.18;;
41661;SDS011;27351;45.992;12.666;2022-08-26T02:20:50;7.47;;;4.47;;
41661;SDS011;27351;45.992;12.666;2022-08-26T02:23:17;8.15;;;4.85;;
41661;SDS011;27351;45.992;12.666;2022-08-26T02:25:46;9.93;;;5.05;;
41661;SDS011;27351;45.992;12.666;2022-08-26T02:28:12;9.23;;;4.43;;
41661;SDS011;27351;45.992;12.666;2022-08-26T02:30:38;10.10;;;5.07;;
41661;SDS011;27351;45.992;12.666;2022-08-26T02:33:04;7.60;;;4.38;;
41661;SDS011;27351;45.992;12.666;2022-08-26T02:35:31;9.43;;;4.88;;
41661;SDS011;27351;45.992;12.666;2022-08-26T02:37:58;9.02;;;5.20;;
41661;SDS011;27351;45.992;12.666;2022-08-26T02:40:29;9.75;;;4.72;;
41661;SDS011;27351;45.992;12.666;2022-08-26T02:42:55;8.40;;;4.60;;
41661;SDS011;27351;45.992;12.666;2022-08-26T02:45:21;10.38;;;5.07;;
41661;SDS011;27351;45.992;12.666;2022-08-26T02:47:47;9.48;;;4.72;;
41661;SDS011;27351;45.992;12.666;2022-08-26T02:50:14;8.07;;;4.95;;
41661;SDS011;27351;45.992;12.666;2022-08-26T02:52:39;7.97;;;4.57;;
41661;SDS011;27351;45.992;12.666;2022-08-26T02:55:05;9.30;;;5.07;;
41661;SDS011;27351;45.992;12.666;2022-08-26T02:57:31;9.95;;;5.15;;
41661;SDS011;27351;45.992;12.666;2022-08-26T02:59:58;9.27;;;5.13;;
41661;SDS011;27351;45.992;12.666;2022-08-26T03:02:25;8.13;;;5.20;;
41661;SDS011;27351;45.992;12.666;2022-08-26T03:04:51;7.93;;;4.60;;
41661;SDS011;27351;45.992;12.666;2022-08-26T03:07:19;8.60;;;4.80;;
41661;SDS011;27351;45.992;12.666;2022-08-26T03:09:45;9.52;;;5.03;;
41661;SDS011;27351;45.992;12.666;2022-08-26T03:12:10;10.67;;;4.90;;
41661;SDS011;27351;45.992;12.666;2022-08-26T03:14:36;10.20;;;4.70;;
41661;SDS011;27351;45.992;12.666;2022-08-26T03:17:02;7.47;;;4.50;;
41661;SDS011;27351;45.992;12.666;2022-08-26T03:19:27;7.82;;;4.65;;
41661;SDS011;27351;45.992;12.666;2022-08-26T03:21:54;9.35;;;4.78;;
41661;SDS011;27351;45.992;12.666;2022-08-26T03:24:20;9.93;;;5.20;;
41661;SDS011;27351;45.992;12.666;2022-08-26T03:26:45;8.88;;;5.05;;
41661;SDS011;27351;45.992;12.666;2022-08-26T03:29:11;8.80;;;4.97;;
41661;SDS011;27351;45.992;12.666;2022-08-26T03:31:55;9.43;;;4.65;;
41661;SDS011;27351;45.992;12.666;2022-08-26T03:34:21;9.55;;;4.90;;
41661;SDS011;27351;45.992;12.666;2022-08-26T03:36:47;10.40;;;5.03;;
41661;SDS011;27351;45.992;12.666;2022-08-26T03:39:13;10.48;;;5.30;;
41661;SDS011;27351;45.992;12.666;2022-08-26T03:41:40;10.07;;;5.27;;
41661;SDS011;27351;45.992;12.666;2022-08-26T03:44:06;8.43;;;4.93;;
41661;SDS011;27351;45.992;12.666;2022-08-26T03:46:35;10.52;;;5.45;;
41661;SDS011;27351;45.992;12.666;2022-08-26T03:49:02;10.00;;;4.95;;
41661;SDS011;27351;45.992;12.666;2022-08-26T03:51:30;8.95;;;4.70;;
41661;SDS011;27351;45.992;12.666;2022-08-26T03:53:56;8.68;;;4.68;;
41661;SDS011;27351;45.992;12.666;2022-08-26T03:56:23;9.95;;;5.22;;
41661;SDS011;27351;45.992;12.666;2022-08-26T03:58:49;9.38;;;4.80;;
41661;SDS011;27351;45.992;12.666;2022-08-26T04:01:14;8.13;;;4.82;;
41661;SDS011;27351;45.992;12.666;2022-08-26T04:03:40;10.60;;;5.50;;
41661;SDS011;27351;45.992;12.666;2022-08-26T04:06:25;10.73;;;4.93;;
41661;SDS011;27351;45.992;12.666;2022-08-26T04:08:55;11.52;;;5.20;;
41661;SDS011;27351;45.992;12.666;2022-08-26T04:11:21;10.75;;;5.07;;
41661;SDS011;27351;45.992;12.666;2022-08-26T04:13:48;8.77;;;5.40;;
41661;SDS011;27351;45.992;12.666;2022-08-26T04:16:14;10.30;;;5.43;;
41661;SDS011;27351;45.992;12.666;2022-08-26T04:18:40;13.63;;;6.77;;
41661;SDS011;27351;45.992;12.666;2022-08-26T04:21:07;10.43;;;5.82;;
41661;SDS011;27351;45.992;12.666;2022-08-26T04:23:32;9.23;;;5.32;;
41661;SDS011;27351;45.992;12.666;2022-08-26T04:25:58;10.10;;;5.57;;
41661;SDS011;27351;45.992;12.666;2022-08-26T04:28:24;9.57;;;5.63;;
41661;SDS011;27351;45.992;12.666;2022-08-26T04:30:50;11.45;;;5.60;;
41661;SDS011;27351;45.992;12.666;2022-08-26T04:33:15;10.07;;;5.60;;
41661;SDS011;27351;45.992;12.666;2022-08-26T04:35:41;11.80;;;5.55;;
41661;SDS011;27351;45.992;12.666;2022-08-26T04:38:08;9.65;;;5.40;;
41661;SDS011;27351;45.992;12.666;2022-08-26T04:40:34;9.20;;;4.90;;
41661;SDS011;27351;45.992;12.666;2022-08-26T04:43:00;8.07;;;4.25;;
41661;SDS011;27351;45.992;12.666;2022-08-26T04:45:26;9.90;;;3.97;;
41661;SDS011;27351;45.992;12.666;2022-08-26T04:47:55;7.35;;;4.25;;
41661;SDS011;27351;45.992;12.666;2022-08-26T04:50:22;9.32;;;4.00;;
41661;SDS011;27351;45.992;12.666;2022-08-26T04:52:49;10.50;;;4.43;;
41661;SDS011;27351;45.992;12.666;2022-08-26T04:55:14;7.20;;;4.00;;
41661;SDS011;27351;45.992;12.666;2022-08-26T04:57:40;8.23;;;4.75;;
41661;SDS011;27351;45.992;12.666;2022-08-26T05:00:07;7.07;;;4.07;;
41661;SDS011;27351;45.992;12.666;2022-08-26T05:02:34;8.65;;;4.07;;
41661;SDS011;27351;45.992;12.666;2022-08-26T05:05:01;7.80;;;3.80;;
41661;SDS011;27351;45.992;12.666;2022-08-26T05:07:26;10.23;;;3.97;;
41661;SDS011;27351;45.992;12.666;2022-08-26T05:09:53;6.95;;;3.50;;
41661;SDS011;27351;45.992;12.666;2022-08-26T05:12:18;6.03;;;3.40;;
41661;SDS011;27351;45.992;12.666;2022-08-26T05:14:44;5.67;;;3.17;;
41661;SDS011;27351;45.992;12.666;2022-08-26T05:17:10;6.78;;;2.97;;
41661;SDS011;27351;45.992;12.666;2022-08-26T05:19:36;6.97;;;3.05;;
41661;SDS011;27351;45.992;12.666;2022-08-26T05:22:02;7.20;;;3.17;;
41661;SDS011;27351;45.992;12.666;2022-08-26T05:24:27;6.97;;;3.07;;
41661;SDS011;27351;45.992;12.666;2022-08-26T05:26:54;9.73;;;3.58;;
41661;SDS011;27351;45.992;12.666;2022-08-26T05:29:20;6.60;;;3.08;;
41661;SDS011;27351;45.992;12.666;2022-08-26T05:31:45;12.13;;;3.37;;
41661;SDS011;27351;45.992;12.666;2022-08-26T05:34:11;7.23;;;3.20;;
41661;SDS011;27351;45.992;12.666;2022-08-26T05:36:36;11.05;;;2.88;;
41661;SDS011;27351;45.992;12.666;2022-08-26T05:39:06;6.53;;;2.80;;
41661;SDS011;27351;45.992;12.666;2022-08-26T05:41:33;8.27;;;3.20;;
41661;SDS011;27351;45.992;12.666;2022-08-26T05:43:59;7.70;;;2.88;;
41661;SDS011;27351;45.992;12.666;2022-08-26T05:46:25;6.55;;;2.58;;
41661;SDS011;27351;45.992;12.666;2022-08-26T05:48:52;5.95;;;2.80;;
41661;SDS011;27351;45.992;12.666;2022-08-26T05:51:17;5.38;;;2.75;;
41661;SDS011;27351;45.992;12.666;2022-08-26T05:53:43;8.00;;;2.80;;
41661;SDS011;27351;45.992;12.666;2022-08-26T05:56:09;6.70;;;2.97;;
41661;SDS011;27351;45.992;12.666;2022-08-26T05:58:35;6.80;;;3.05;;
41661;SDS011;27351;45.992;12.666;2022-08-26T06:01:03;9.43;;;3.10;;
41661;SDS011;27351;45.992;12.666;2022-08-26T06:03:30;5.82;;;2.53;;
41661;SDS011;27351;45.992;12.666;2022-08-26T06:05:56;5.35;;;2.40;;
41661;SDS011;27351;45.992;12.666;2022-08-26T06:08:22;5.90;;;2.75;;
41661;SDS011;27351;45.992;12.666;2022-08-26T06:10:49;6.38;;;2.80;;
41661;SDS011;27351;45.992;12.666;2022-08-26T06:13:15;5.70;;;2.40;;
41661;SDS011;27351;45.992;12.666;2022-08-26T06:15:43;5.03;;;2.67;;
41661;SDS011;27351;45.992;12.666;2022-08-26T06:18:10;7.80;;;3.00;;
41661;SDS011;27351;45.992;12.666;2022-08-26T06:20:36;5.65;;;2.90;;
41661;SDS011;27351;45.992;12.666;2022-08-26T06:23:02;5.73;;;2.60;;
41661;SDS011;27351;45.992;12.666;2022-08-26T06:25:47;5.38;;;2.80;;
41661;SDS011;27351;45.992;12.666;2022-08-26T06:28:13;6.30;;;2.60;;
41661;SDS011;27351;45.992;12.666;2022-08-26T06:30:39;9.38;;;3.42;;
41661;SDS011;27351;45.992;12.666;2022-08-26T06:33:06;6.88;;;2.90;;
41661;SDS011;27351;45.992;12.666;2022-08-26T06:35:35;6.72;;;3.10;;
41661;SDS011;27351;45.992;12.666;2022-08-26T06:38:02;7.38;;;3.00;;
41661;SDS011;27351;45.992;12.666;2022-08-26T06:40:27;5.53;;;2.85;;
41661;SDS011;27351;45.992;12.666;2022-08-26T06:42:53;9.60;;;3.00;;
41661;SDS011;27351;45.992;12.666;2022-08-26T06:45:19;5.18;;;2.60;;
41661;SDS011;27351;45.992;12.666;2022-08-26T06:47:45;7.45;;;2.78;;
41661;SDS011;27351;45.992;12.666;2022-08-26T06:50:10;7.63;;;3.00;;
41661;SDS011;27351;45.992;12.666;2022-08-26T06:52:36;7.33;;;3.10;;
41661;SDS011;27351;45.992;12.666;2022-08-26T06:55:02;6.25;;;2.80;;
41661;SDS011;27351;45.992;12.666;2022-08-26T06:57:27;6.53;;;2.80;;
41661;SDS011;27351;45.992;12.666;2022-08-26T06:59:56;5.53;;;2.80;;
41661;SDS011;27351;45.992;12.666;2022-08-26T07:02:22;7.80;;;3.03;;
41661;SDS011;27351;45.992;12.666;2022-08-26T07:04:47;6.65;;;3.00;;
41661;SDS011;27351;45.992;12.666;2022-08-26T07:07:13;5.50;;;2.90;;
41661;SDS011;27351;45.992;12.666;2022-08-26T07:09:39;5.18;;;2.97;;
41661;SDS011;27351;45.992;12.666;2022-08-26T07:12:04;5.25;;;3.10;;
41661;SDS011;27351;45.992;12.666;2022-08-26T07:14:30;6.07;;;3.00;;
41661;SDS011;27351;45.992;12.666;2022-08-26T07:16:56;5.63;;;3.07;;
41661;SDS011;27351;45.992;12.666;2022-08-26T07:19:24;6.60;;;3.00;;
41661;SDS011;27351;45.992;12.666;2022-08-26T07:21:50;9.07;;;3.58;;
41661;SDS011;27351;45.992;12.666;2022-08-26T07:24:15;7.07;;;3.05;;
41661;SDS011;27351;45.992;12.666;2022-08-26T07:26:41;7.77;;;3.10;;
41661;SDS011;27351;45.992;12.666;2022-08-26T07:29:06;7.20;;;3.65;;
41661;SDS011;27351;45.992;12.666;2022-08-26T07:31:32;9.70;;;3.80;;
41661;SDS011;27351;45.992;12.666;2022-08-26T07:33:59;7.93;;;3.92;;
41661;SDS011;27351;45.992;12.666;2022-08-26T07:36:26;7.65;;;3.38;;
41661;SDS011;27351;45.992;12.666;2022-08-26T07:38:53;6.68;;;3.35;;
41661;SDS011;27351;45.992;12.666;2022-08-26T07:41:20;5.90;;;3.40;;
41661;SDS011;27351;45.992;12.666;2022-08-26T07:43:47;6.40;;;3.58;;
41661;SDS011;27351;45.992;12.666;2022-08-26T07:46:12;9.25;;;3.60;;
41661;SDS011;27351;45.992;12.666;2022-08-26T07:48:43;7.00;;;3.00;;
41661;SDS011;27351;45.992;12.666;2022-08-26T07:51:08;5.82;;;3.40;;
41661;SDS011;27351;45.992;12.666;2022-08-26T07:53:34;5.73;;;3.00;;
41661;SDS011;27351;45.992;12.666;2022-08-26T07:56:00;6.87;;;3.43;;
41661;SDS011;27351;45.992;12.666;2022-08-26T07:58:26;6.90;;;3.60;;
41661;SDS011;27351;45.992;12.666;2022-08-26T08:00:52;7.45;;;3.60;;
41661;SDS011;27351;45.992;12.666;2022-08-26T08:03:18;14.47;;;3.77;;
41661;SDS011;27351;45.992;12.666;2022-08-26T08:05:44;7.97;;;3.50;;
41661;SDS011;27351;45.992;12.666;2022-08-26T08:08:10;11.00;;;4.13;;
41661;SDS011;27351;45.992;12.666;2022-08-26T08:10:36;9.17;;;3.87;;
41661;SDS011;27351;45.992;12.666;2022-08-26T08:13:02;8.30;;;3.75;;
41661;SDS011;27351;45.992;12.666;2022-08-26T08:15:28;11.15;;;3.72;;
41661;SDS011;27351;45.992;12.666;2022-08-26T08:17:57;9.07;;;3.90;;
41661;SDS011;27351;45.992;12.666;2022-08-26T08:20:24;10.90;;;4.27;;
41661;SDS011;27351;45.992;12.666;2022-08-26T08:22:50;9.68;;;3.90;;
41661;SDS011;27351;45.992;12.666;2022-08-26T08:25:16;7.73;;;3.60;;
41661;SDS011;27351;45.992;12.666;2022-08-26T08:27:43;9.77;;;4.20;;
41661;SDS011;27351;45.992;12.666;2022-08-26T08:30:13;8.73;;;3.78;;
41661;SDS011;27351;45.992;12.666;2022-08-26T08:32:40;7.55;;;3.90;;
41661;SDS011;27351;45.992;12.666;2022-08-26T08:35:08;9.07;;;3.55;;
41661;SDS011;27351;45.992;12.666;2022-08-26T08:37:34;8.63;;;4.00;;
41661;SDS011;27351;45.992;12.666;2022-08-26T08:40:00;11.50;;;3.88;;
41661;SDS011;27351;45.992;12.666;2022-08-26T08:42:29;10.33;;;4.30;;
41661;SDS011;27351;45.992;12.666;2022-08-26T08:45:01;7.00;;;3.47;;
41661;SDS011;27351;45.992;12.666;2022-08-26T08:49:58;7.72;;;3.47;;
41661;SDS011;27351;45.992;12.666;2022-08-26T08:52:31;9.70;;;3.83;;
41661;SDS011;27351;45.992;12.666;2022-08-26T08:55:00;12.05;;;4.20;;
41661;SDS011;27351;45.992;12.666;2022-08-26T08:57:38;9.43;;;3.97;;
41661;SDS011;27351;45.992;12.666;2022-08-26T09:00:12;7.70;;;3.65;;
41661;SDS011;27351;45.992;12.666;2022-08-26T09:02:45;8.82;;;3.50;;
41661;SDS011;27351;45.992;12.666;2022-08-26T09:05:20;8.05;;;3.50;;
41661;SDS011;27351;45.992;12.666;2022-08-26T09:07:57;7.55;;;4.03;;
41661;SDS011;27351;45.992;12.666;2022-08-26T09:10:28;7.07;;;3.20;;
41661;SDS011;27351;45.992;12.666;2022-08-26T09:12:54;9.93;;;3.77;;
41661;SDS011;27351;45.992;12.666;2022-08-26T09:15:33;8.57;;;3.45;;
41661;SDS011;27351;45.992;12.666;2022-08-26T09:23:11;8.32;;;4.00;;
41661;SDS011;27351;45.992;12.666;2022-08-26T09:25:51;9.10;;;3.90;;
41661;SDS011;27351;45.992;12.666;2022-08-26T09:28:18;11.13;;;4.60;;
41661;SDS011;27351;45.992;12.666;2022-08-26T09:30:45;10.35;;;4.22;;
41661;SDS011;27351;45.992;12.666;2022-08-26T09:33:14;10.35;;;4.55;;
41661;SDS011;27351;45.992;12.666;2022-08-26T09:35:41;11.70;;;4.63;;
41661;SDS011;27351;45.992;12.666;2022-08-26T09:38:30;9.15;;;4.10;;
41661;SDS011;27351;45.992;12.666;2022-08-26T09:40:58;7.37;;;4.17;;
41661;SDS011;27351;45.992;12.666;2022-08-26T09:43:24;9.85;;;4.00;;
41661;SDS011;27351;45.992;12.666;2022-08-26T09:45:51;10.27;;;3.92;;
41661;SDS011;27351;45.992;12.666;2022-08-26T09:48:28;8.85;;;3.55;;
41661;SDS011;27351;45.992;12.666;2022-08-26T09:50:55;10.30;;;4.05;;
41661;SDS011;27351;45.992;12.666;2022-08-26T09:53:23;10.05;;;3.53;;
41661;SDS011;27351;45.992;12.666;2022-08-26T09:55:51;9.80;;;4.28;;
41661;SDS011;27351;45.992;12.666;2022-08-26T09:58:35;9.02;;;4.47;;
41661;SDS011;27351;45.992;12.666;2022-08-26T10:01:03;9.77;;;4.53;;
41661;SDS011;27351;45.992;12.666;2022-08-26T10:03:31;11.07;;;4.68;;
41661;SDS011;27351;45.992;12.666;2022-08-26T10:05:59;9.70;;;4.22;;
41661;SDS011;27351;45.992;12.666;2022-08-26T10:08:26;10.37;;;4.70;;
41661;SDS011;27351;45.992;12.666;2022-08-26T10:10:53;10.27;;;4.50;;
41661;SDS011;27351;45.992;12.666;2022-08-26T10:15:54;9.82;;;4.68;;
41661;SDS011;27351;45.992;12.666;2022-08-26T10:18:32;9.55;;;4.80;;
41661;SDS011;27351;45.992;12.666;2022-08-26T10:21:03;9.77;;;4.65;;
41661;SDS011;27351;45.992;12.666;2022-08-26T10:23:32;9.13;;;4.30;;
41661;SDS011;27351;45.992;12.666;2022-08-26T10:26:01;12.82;;;4.70;;
41661;SDS011;27351;45.992;12.666;2022-08-26T10:28:31;10.35;;;4.20;;
41661;SDS011;27351;45.992;12.666;2022-08-26T10:31:05;9.85;;;4.47;;
41661;SDS011;27351;45.992;12.666;2022-08-26T10:33:33;10.95;;;4.10;;
41661;SDS011;27351;45.992;12.666;2022-08-26T10:36:00;9.27;;;4.50;;
41661;SDS011;27351;45.992;12.666;2022-08-26T10:38:34;8.10;;;3.90;;
41661;SDS011;27351;45.992;12.666;2022-08-26T10:43:35;6.03;;;3.60;;
41661;SDS011;27351;45.992;12.666;2022-08-26T10:46:03;7.78;;;3.95;;
41661;SDS011;27351;45.992;12.666;2022-08-26T10:51:15;10.15;;;3.65;;
41661;SDS011;27351;45.992;12.666;2022-08-26T10:56:17;9.38;;;3.70;;
41661;SDS011;27351;45.992;12.666;2022-08-26T11:01:13;6.80;;;3.70;;
41661;SDS011;27351;45.992;12.666;2022-08-26T11:06:44;7.32;;;3.75;;
41661;SDS011;27351;45.992;12.666;2022-08-26T11:09:11;7.13;;;3.53;;
41661;SDS011;27351;45.992;12.666;2022-08-26T11:11:41;8.88;;;3.53;;
41661;SDS011;27351;45.992;12.666;2022-08-26T11:16:37;8.18;;;3.72;;
41661;SDS011;27351;45.992;12.666;2022-08-26T11:19:04;8.48;;;3.63;;
41661;SDS011;27351;45.992;12.666;2022-08-26T11:24:05;7.50;;;3.13;;
41661;SDS011;27351;45.992;12.666;2022-08-26T11:26:34;7.47;;;3.70;;
41661;SDS011;27351;45.992;12.666;2022-08-26T11:29:00;9.13;;;3.40;;
41661;SDS011;27351;45.992;12.666;2022-08-26T11:33:57;8.97;;;3.73;;
41661;SDS011;27351;45.992;12.666;2022-08-26T11:37:09;9.13;;;3.28;;
41661;SDS011;27351;45.992;12.666;2022-08-26T11:39:26;7.40;;;3.30;;
41661;SDS011;27351;45.992;12.666;2022-08-26T11:41:54;6.47;;;3.03;;
41661;SDS011;27351;45.992;12.666;2022-08-26T11:44:22;7.35;;;3.20;;
41661;SDS011;27351;45.992;12.666;2022-08-26T11:46:51;7.00;;;3.00;;
41661;SDS011;27351;45.992;12.666;2022-08-26T11:49:17;6.00;;;3.20;;
41661;SDS011;27351;45.992;12.666;2022-08-26T11:51:43;7.50;;;3.10;;
41661;SDS011;27351;45.992;12.666;2022-08-26T11:54:13;7.20;;;3.43;;
41661;SDS011;27351;45.992;12.666;2022-08-26T11:56:40;8.40;;;3.20;;
41661;SDS011;27351;45.992;12.666;2022-08-26T11:59:07;5.45;;;3.40;;
41661;SDS011;27351;45.992;12.666;2022-08-26T12:01:35;9.87;;;3.57;;
41661;SDS011;27351;45.992;12.666;2022-08-26T12:04:04;6.95;;;3.28;;
41661;SDS011;27351;45.992;12.666;2022-08-26T12:06:35;9.38;;;3.50;;
41661;SDS011;27351;45.992;12.666;2022-08-26T12:09:11;8.40;;;3.20;;
41661;SDS011;27351;45.992;12.666;2022-08-26T12:11:38;8.02;;;3.08;;
41661;SDS011;27351;45.992;12.666;2022-08-26T12:14:23;6.70;;;3.10;;
41661;SDS011;27351;45.992;12.666;2022-08-26T12:16:50;8.52;;;3.28;;
41661;SDS011;27351;45.992;12.666;2022-08-26T12:19:29;6.47;;;2.97;;
41661;SDS011;27351;45.992;12.666;2022-08-26T12:22:19;6.72;;;3.13;;
41661;SDS011;27351;45.992;12.666;2022-08-26T12:24:49;7.03;;;3.25;;
41661;SDS011;27351;45.992;12.666;2022-08-26T12:27:17;7.07;;;3.30;;
41661;SDS011;27351;45.992;12.666;2022-08-26T12:29:43;6.95;;;3.78;;
41661;SDS011;27351;45.992;12.666;2022-08-26T12:32:13;7.77;;;3.47;;
41661;SDS011;27351;45.992;12.666;2022-08-26T12:34:42;8.63;;;3.35;;
41661;SDS011;27351;45.992;12.666;2022-08-26T12:37:10;7.67;;;3.37;;
41661;SDS011;27351;45.992;12.666;2022-08-26T12:39:37;8.20;;;3.47;;
41661;SDS011;27351;45.992;12.666;2022-08-26T12:42:16;9.27;;;3.30;;
41661;SDS011;27351;45.992;12.666;2022-08-26T12:50:00;7.20;;;3.15;;
41661;SDS011;27351;45.992;12.666;2022-08-26T12:52:27;6.45;;;3.50;;
41661;SDS011;27351;45.992;12.666;2022-08-26T12:54:57;8.10;;;3.67;;
41661;SDS011;27351;45.992;12.666;2022-08-26T12:57:33;9.15;;;3.72;;
41661;SDS011;27351;45.992;12.666;2022-08-26T13:02:45;8.02;;;3.38;;
41661;SDS011;27351;45.992;12.666;2022-08-26T13:05:19;6.32;;;3.58;;
41661;SDS011;27351;45.992;12.666;2022-08-26T13:08:06;8.63;;;3.47;;
41661;SDS011;27351;45.992;12.666;2022-08-26T13:10:34;10.10;;;3.53;;
41661;SDS011;27351;45.992;12.666;2022-08-26T13:13:01;8.27;;;3.40;;
41661;SDS011;27351;45.992;12.666;2022-08-26T13:15:26;9.98;;;4.38;;
41661;SDS011;27351;45.992;12.666;2022-08-26T13:17:52;8.67;;;4.00;;
41661;SDS011;27351;45.992;12.666;2022-08-26T13:20:17;10.63;;;4.07;;
41661;SDS011;27351;45.992;12.666;2022-08-26T13:22:43;8.15;;;3.92;;
41661;SDS011;27351;45.992;12.666;2022-08-26T13:25:09;8.73;;;4.68;;
41661;SDS011;27351;45.992;12.666;2022-08-26T13:27:35;7.93;;;4.15;;
41661;SDS011;27351;45.992;12.666;2022-08-26T13:30:01;10.20;;;4.60;;
41661;SDS011;27351;45.992;12.666;2022-08-26T13:32:28;10.60;;;4.30;;
41661;SDS011;27351;45.992;12.666;2022-08-26T13:34:54;10.63;;;4.50;;
41661;SDS011;27351;45.992;12.666;2022-08-26T13:37:20;9.98;;;4.70;;
41661;SDS011;27351;45.992;12.666;2022-08-26T13:39:48;10.57;;;5.00;;
41661;SDS011;27351;45.992;12.666;2022-08-26T13:42:13;9.32;;;4.90;;
41661;SDS011;27351;45.992;12.666;2022-08-26T13:44:39;8.93;;;4.72;;
41661;SDS011;27351;45.992;12.666;2022-08-26T13:47:07;9.32;;;5.05;;
41661;SDS011;27351;45.992;12.666;2022-08-26T13:49:33;9.68;;;4.65;;
41661;SDS011;27351;45.992;12.666;2022-08-26T13:51:59;8.13;;;4.43;;
41661;SDS011;27351;45.992;12.666;2022-08-26T13:54:25;9.05;;;4.82;;
41661;SDS011;27351;45.992;12.666;2022-08-26T13:56:51;9.77;;;4.90;;
41661;SDS011;27351;45.992;12.666;2022-08-26T13:59:16;9.90;;;4.77;;
41661;SDS011;27351;45.992;12.666;2022-08-26T14:01:42;8.23;;;4.60;;
41661;SDS011;27351;45.992;12.666;2022-08-26T14:04:08;10.00;;;5.17;;
41661;SDS011;27351;45.992;12.666;2022-08-26T14:06:34;10.65;;;5.30;;
41661;SDS011;27351;45.992;12.666;2022-08-26T14:09:00;8.25;;;5.00;;
41661;SDS011;27351;45.992;12.666;2022-08-26T14:11:25;8.40;;;4.97;;
41661;SDS011;27351;45.992;12.666;2022-08-26T14:13:53;9.32;;;5.00;;
41661;SDS011;27351;45.992;12.666;2022-08-26T14:16:29;8.80;;;4.80;;
41661;SDS011;27351;45.992;12.666;2022-08-26T14:18:59;8.45;;;4.85;;
41661;SDS011;27351;45.992;12.666;2022-08-26T14:21:35;10.40;;;5.27;;
41661;SDS011;27351;45.992;12.666;2022-08-26T14:24:02;10.93;;;5.35;;
41661;SDS011;27351;45.992;12.666;2022-08-26T14:26:27;11.80;;;5.20;;
41661;SDS011;27351;45.992;12.666;2022-08-26T14:28:53;8.45;;;5.47;;
41661;SDS011;27351;45.992;12.666;2022-08-26T14:31:19;11.95;;;5.38;;
41661;SDS011;27351;45.992;12.666;2022-08-26T14:33:46;10.85;;;5.28;;
41661;SDS011;27351;45.992;12.666;2022-08-26T14:36:12;12.02;;;5.50;;
41661;SDS011;27351;45.992;12.666;2022-08-26T14:38:56;8.77;;;5.37;;
41661;SDS011;27351;45.992;12.666;2022-08-26T14:41:22;10.00;;;4.90;;
41661;SDS011;27351;45.992;12.666;2022-08-26T14:44:05;8.55;;;5.32;;
41661;SDS011;27351;45.992;12.666;2022-08-26T14:46:33;9.85;;;5.20;;
41661;SDS011;27351;45.992;12.666;2022-08-26T14:49:00;8.90;;;4.80;;
41661;SDS011;27351;45.992;12.666;2022-08-26T14:51:27;9.13;;;5.13;;
41661;SDS011;27351;45.992;12.666;2022-08-26T14:53:53;8.27;;;5.15;;
41661;SDS011;27351;45.992;12.666;2022-08-26T14:56:59;8.55;;;5.18;;
41661;SDS011;27351;45.992;12.666;2022-08-26T14:59:24;8.75;;;5.28;;
41661;SDS011;27351;45.992;12.666;2022-08-26T15:01:50;11.20;;;5.88;;
41661;SDS011;27351;45.992;12.666;2022-08-26T15:04:17;9.75;;;5.97;;
41661;SDS011;27351;45.992;12.666;2022-08-26T15:06:43;9.40;;;4.97;;
41661;SDS011;27351;45.992;12.666;2022-08-26T15:09:09;10.63;;;5.50;;
41661;SDS011;27351;45.992;12.666;2022-08-26T15:11:35;12.35;;;5.95;;
41661;SDS011;27351;45.992;12.666;2022-08-26T15:14:01;9.93;;;5.70;;
41661;SDS011;27351;45.992;12.666;2022-08-26T15:16:27;11.90;;;6.30;;
41661;SDS011;27351;45.992;12.666;2022-08-26T15:18:53;10.97;;;5.80;;